createdAt,value
2018-10-01T04:30:26.288Z,15.10
2018-10-01T04:32:55.173Z,22.23
2018-10-01T04:35:23.426Z,11.07
2018-10-01T04:37:51.525Z,11.67
2018-10-01T04:40:19.644Z,10.07
2018-10-01T04:42:47.868Z,18.50
2018-10-01T04:45:16.188Z,13.80
2018-10-01T04:47:44.313Z,13.50
2018-10-01T04:50:12.437Z,12.30
2018-10-01T04:52:40.541Z,13.00
2018-10-01T04:55:08.642Z,11.97
2018-10-01T04:57:36.745Z,15.40
2018-10-01T05:00:04.952Z,10.83
2018-10-01T05:02:33.039Z,19.03
2018-10-01T05:05:01.138Z,14.20
2018-10-01T05:07:29.244Z,14.27
2018-10-01T05:09:57.342Z,12.10
2018-10-01T05:12:25.427Z,12.23
2018-10-01T05:14:53.648Z,14.13
2018-10-01T05:17:21.676Z,11.10
2018-10-01T05:19:49.830Z,19.27
2018-10-01T05:22:18.020Z,19.50
2018-10-01T05:24:46.330Z,13.90
2018-10-01T05:27:14.653Z,17.23
2018-10-01T05:29:42.704Z,11.67
2018-10-01T05:32:11.760Z,16.10
2018-10-01T05:34:41.344Z,14.37
2018-10-01T05:37:09.660Z,17.83
2018-10-01T05:39:37.760Z,17.37
2018-10-01T05:42:06.087Z,17.73
2018-10-01T05:44:34.183Z,16.33
2018-10-01T05:47:02.260Z,16.70
2018-10-01T05:49:30.368Z,15.10
2018-10-01T05:51:58.454Z,16.67
2018-10-01T05:54:26.638Z,26.60
2018-10-01T05:56:54.704Z,21.37
2018-10-01T05:59:22.806Z,26.40
2018-10-01T06:01:50.950Z,16.43
2018-10-01T06:04:19.041Z,28.87
2018-10-01T06:06:47.172Z,26.20
2018-10-01T06:09:15.252Z,22.67
2018-10-01T06:11:43.398Z,24.17
2018-10-01T06:14:11.564Z,30.70
2018-10-01T06:16:39.695Z,27.17
2018-10-01T06:19:07.769Z,24.30
2018-10-01T06:21:35.872Z,33.20
2018-10-01T06:24:03.960Z,23.30
2018-10-01T06:26:32.051Z,31.43
2018-10-01T06:29:00.156Z,29.63
2018-10-01T06:31:28.226Z,23.37
2018-10-01T06:33:56.345Z,27.53
2018-10-01T06:36:24.103Z,28.67
2018-10-01T06:38:52.160Z,30.43
2018-10-01T06:41:20.260Z,25.17
2018-10-01T06:43:48.369Z,26.30
2018-10-01T15:02:45.611Z,9.00
2018-10-01T15:05:14.291Z,5.83
2018-10-01T15:07:42.717Z,4.40
2018-10-01T15:10:10.800Z,10.20
2018-10-01T15:12:38.957Z,6.80
2018-10-01T15:15:07.088Z,5.83
2018-10-01T15:17:36.089Z,15.73
2018-10-01T15:20:04.172Z,9.47
2018-10-01T15:22:32.265Z,5.73
2018-10-01T15:25:00.433Z,18.73
2018-10-01T15:27:28.505Z,6.60
2018-10-01T15:29:56.728Z,9.13
2018-10-01T15:32:24.772Z,10.73
2018-10-01T15:34:52.861Z,6.70
2018-10-01T15:37:20.941Z,11.10
2018-10-01T15:39:49.026Z,8.90
2018-10-01T15:42:17.097Z,6.90
2018-10-01T15:44:45.188Z,6.97
2018-10-01T15:47:13.264Z,11.40
2018-10-01T15:49:41.356Z,6.13
2018-10-01T15:52:09.429Z,3.43
2018-10-01T15:54:37.501Z,8.33
2018-10-01T15:57:05.952Z,9.60
2018-10-01T15:59:34.036Z,13.40
2018-10-01T16:02:02.125Z,7.27
2018-10-01T16:04:30.199Z,8.80
2018-10-01T16:06:59.089Z,8.03
2018-10-01T16:09:27.284Z,6.00
2018-10-01T16:11:55.364Z,7.73
2018-10-01T16:14:23.460Z,5.23
2018-10-01T16:16:51.544Z,6.97
2018-10-01T16:19:19.628Z,9.20
2018-10-01T16:26:54.600Z,4.20
2018-10-01T16:29:22.668Z,5.80
2018-10-01T16:31:50.764Z,4.50
2018-10-01T16:34:18.941Z,6.10
2018-10-01T16:36:47.018Z,9.00
2018-10-01T16:39:15.096Z,5.60
2018-10-01T16:41:43.189Z,4.37
2018-10-01T16:46:44.728Z,5.10
2018-10-01T16:49:12.866Z,6.50
2018-10-01T16:51:40.890Z,5.80
2018-10-01T16:54:08.976Z,4.37
2018-10-01T16:56:37.050Z,2.67
2018-10-01T16:59:05.141Z,5.67
2018-10-01T17:01:33.224Z,4.37
2018-10-01T17:04:01.305Z,2.70
2018-10-01T17:06:32.401Z,3.67
2018-10-01T17:09:00.374Z,5.43
2018-10-01T17:11:28.804Z,4.70
2018-10-01T17:13:56.999Z,2.90
2018-10-01T17:16:25.068Z,2.33
2018-10-01T17:18:53.168Z,5.07
2018-10-01T17:21:21.281Z,3.40
2018-10-01T17:23:49.357Z,3.20
2018-10-01T17:26:17.423Z,4.30
2018-10-01T17:28:45.694Z,4.33
2018-10-01T17:31:13.784Z,4.37
2018-10-01T17:33:41.917Z,5.13
2018-10-01T17:36:10.018Z,8.10
2018-10-01T17:38:38.260Z,5.47
2018-10-01T17:41:06.728Z,10.97
2018-10-01T17:43:34.909Z,7.87
2018-10-01T17:46:03.062Z,5.60
2018-10-01T17:48:31.268Z,7.07
2018-10-01T17:50:59.368Z,3.17
2018-10-01T17:53:27.448Z,4.77
2018-10-01T17:55:55.541Z,4.33
2018-10-01T17:58:23.756Z,6.37
2018-10-01T18:00:51.848Z,6.10
2018-10-01T18:03:19.937Z,4.07
2018-10-01T18:05:48.094Z,5.50
2018-10-01T18:08:16.144Z,5.67
2018-10-01T18:10:44.233Z,8.33
2018-10-01T18:13:12.333Z,5.60
2018-10-01T18:15:40.420Z,7.13
2018-10-01T18:18:08.521Z,10.90
2018-10-01T18:20:36.600Z,2.83
2018-10-01T18:23:04.700Z,8.23
2018-10-01T18:25:32.780Z,8.43
2018-10-01T18:28:00.856Z,5.87
2018-10-01T18:30:28.953Z,5.03
2018-10-01T18:32:57.036Z,4.00
2018-10-01T18:35:25.111Z,7.87
2018-10-01T18:37:53.196Z,5.23
2018-10-01T18:40:21.290Z,9.47
2018-10-01T18:42:49.376Z,5.63
2018-10-01T18:45:17.459Z,6.40
2018-10-01T18:47:45.539Z,4.03
2018-10-01T18:50:13.597Z,7.90
2018-10-01T18:52:41.669Z,7.63
2018-10-01T18:55:09.949Z,9.97
2018-10-01T18:57:38.134Z,7.30
2018-10-01T19:00:07.350Z,5.50
2018-10-01T19:02:35.380Z,13.13
2018-10-01T19:05:03.653Z,6.50
2018-10-01T19:07:31.755Z,8.10
2018-10-01T19:09:59.844Z,5.03
2018-10-01T19:12:28.017Z,3.50
2018-10-01T19:14:56.023Z,6.43
2018-10-01T19:17:24.234Z,3.93
2018-10-01T19:19:52.341Z,3.00
2018-10-01T19:22:20.428Z,4.43
2018-10-01T19:24:48.505Z,7.80
2018-10-01T19:27:16.693Z,4.13
2018-10-01T19:29:44.904Z,7.40
2018-10-01T19:32:12.936Z,6.93
2018-10-01T19:34:41.026Z,6.30
2018-10-01T19:37:09.129Z,11.07
2018-10-01T19:39:37.173Z,4.57
2018-10-01T19:42:05.326Z,4.57
2018-10-01T19:44:33.453Z,8.83
2018-10-01T19:47:01.546Z,7.87
2018-10-01T19:49:29.612Z,11.10
2018-10-01T19:51:57.752Z,5.27
2018-10-01T19:54:25.895Z,5.53
2018-10-01T19:56:53.993Z,4.97
2018-10-01T19:59:22.067Z,14.20
2018-10-01T20:01:50.133Z,6.50
2018-10-01T20:04:18.220Z,6.13
2018-10-01T20:06:46.988Z,5.87
2018-10-01T20:09:15.071Z,6.33
2018-10-01T20:11:43.161Z,11.97
2018-10-01T20:14:11.236Z,8.90
2018-10-01T20:16:39.366Z,3.77
2018-10-01T20:19:07.595Z,3.73
2018-10-01T20:21:35.782Z,13.33
2018-10-01T20:24:03.977Z,7.30
2018-10-01T20:26:32.268Z,6.00
2018-10-01T20:29:00.619Z,6.07
2018-10-01T20:31:28.412Z,5.67
2018-10-01T20:33:56.549Z,4.90
2018-10-01T20:36:24.701Z,8.20
2018-10-01T20:38:52.808Z,9.07
2018-10-01T20:41:20.973Z,8.37
2018-10-01T20:43:49.040Z,8.53
2018-10-01T20:46:17.378Z,12.20
2018-10-01T20:48:45.444Z,13.20
2018-10-01T20:51:13.549Z,7.60
2018-10-01T20:53:41.746Z,8.30
2018-10-01T20:56:09.842Z,8.53
2018-10-01T20:58:38.099Z,13.13
2018-10-01T21:01:06.248Z,5.50
2018-10-01T21:03:34.600Z,8.97
2018-10-01T21:06:02.732Z,7.23
2018-10-01T21:08:32.313Z,8.37
2018-10-01T21:11:00.385Z,6.30
2018-10-01T21:13:28.477Z,13.03
2018-10-01T21:15:56.608Z,10.27
2018-10-01T21:18:24.724Z,9.93
2018-10-01T21:20:52.953Z,10.10
2018-10-01T21:23:21.008Z,9.07
2018-10-01T21:25:49.095Z,11.83
2018-10-01T21:28:17.168Z,10.00
2018-10-01T21:30:45.240Z,8.60
2018-10-01T21:33:13.312Z,9.70
2018-10-01T21:35:41.399Z,7.63
2018-10-01T21:38:09.486Z,13.17
2018-10-01T21:40:37.648Z,13.30
2018-10-01T21:43:06.581Z,10.90
2018-10-01T21:45:34.612Z,12.70
2018-10-01T21:48:02.684Z,9.70
2018-10-01T21:50:30.798Z,13.50
2018-10-01T21:52:58.876Z,11.83
2018-10-01T21:55:27.081Z,9.73
2018-10-01T21:57:55.468Z,9.33
2018-10-01T22:00:23.578Z,8.67
2018-10-01T22:02:51.983Z,10.03
2018-10-01T22:05:20.172Z,7.47
2018-10-01T22:07:48.615Z,13.10
2018-10-01T22:10:17.616Z,6.63
2018-10-01T22:12:45.710Z,23.80
2018-10-01T22:15:14.203Z,14.30
2018-10-01T22:17:42.512Z,6.90
2018-10-01T22:20:10.883Z,11.27
2018-10-01T22:22:39.707Z,9.37
2018-10-01T22:25:08.778Z,8.23
2018-10-01T22:27:37.383Z,22.40
2018-10-01T22:30:06.829Z,11.83
2018-10-01T22:32:34.967Z,12.90
2018-10-01T22:35:03.045Z,10.33
2018-10-01T22:37:31.156Z,11.10
2018-10-01T22:39:59.232Z,6.93
2018-10-01T22:42:33.280Z,12.13
2018-10-01T22:45:01.509Z,7.70
